createdAt,value
2023-04-01T00:01:51.958Z,98565.97
2023-04-01T00:04:19.686Z,98559.72
2023-04-01T00:06:48.532Z,98571.91
2023-04-01T00:09:16.093Z,98565.97
2023-04-01T00:11:43.631Z,98566.78
2023-04-01T00:14:11.772Z,98567.75
2023-04-01T00:16:39.489Z,98574.00
2023-04-01T00:19:07.153Z,98565.47
2023-04-01T00:21:34.905Z,98564.38
2023-04-01T00:47:46.624Z,98553.09
2023-04-01T00:50:14.346Z,98553.91
2023-04-01T00:52:41.951Z,98546.19
2023-04-01T00:55:12.258Z,98547.81
2023-04-01T00:57:41.460Z,98541.88
2023-04-01T01:00:11.088Z,98547.00
2023-04-01T01:02:39.386Z,98550.69
2023-04-01T01:05:06.969Z,98549.22
2023-04-01T01:07:34.459Z,98557.22
2023-04-01T01:10:11.331Z,98557.53
2023-04-01T01:12:39.993Z,98560.25
2023-04-01T01:15:07.198Z,98556.88
2023-04-01T01:17:42.626Z,98550.81
2023-04-01T01:20:26.042Z,98547.56
2023-04-01T01:22:57.478Z,98557.69
2023-04-01T01:25:33.491Z,98554.31
2023-04-01T01:28:16.650Z,98561.84
2023-04-01T01:30:50.566Z,98563.31
2023-04-01T01:33:18.509Z,98553.06
2023-04-01T01:35:57.617Z,98559.78
2023-04-01T01:38:27.892Z,98559.66
2023-04-01T01:41:05.115Z,98561.09
2023-04-01T01:43:35.233Z,98553.09
2023-04-01T01:46:05.917Z,98557.28
2023-04-01T01:48:34.053Z,98553.91
2023-04-01T01:51:01.697Z,98552.78
2023-04-01T01:53:28.917Z,98560.34
2023-04-01T01:55:56.867Z,98561.16
2023-04-01T01:58:24.542Z,98557.66
2023-04-01T02:00:57.467Z,98553.28
2023-04-01T02:03:26.369Z,98556.66
2023-04-01T02:05:55.273Z,98561.81
2023-04-01T02:08:26.635Z,98560.06
2023-04-01T02:11:01.204Z,98562.31
2023-04-01T02:13:41.770Z,98568.91
2023-04-01T02:16:30.937Z,98563.78
2023-04-01T02:18:59.278Z,98573.06
2023-04-01T02:21:28.894Z,98572.91
2023-04-01T02:23:58.115Z,98572.13
2023-04-01T02:26:26.808Z,98577.09
2023-04-01T02:28:55.485Z,98573.56
2023-04-01T02:31:24.685Z,98573.44
2023-04-01T02:33:52.073Z,98570.56
2023-04-01T02:36:19.581Z,98571.22
2023-04-01T02:38:48.040Z,98572.03
2023-04-01T02:41:15.554Z,98581.16
2023-04-01T02:43:43.024Z,98577.16
2023-04-01T02:46:10.771Z,98574.44
2023-04-01T02:48:38.873Z,98575.09
2023-04-01T02:51:06.738Z,98577.66
2023-04-01T02:53:34.123Z,98579.25
2023-04-01T02:56:01.356Z,98581.16
2023-04-01T02:58:28.612Z,98573.34
2023-04-01T03:00:56.279Z,98571.69
2023-04-01T03:03:23.563Z,98572.53
2023-04-01T03:05:51.092Z,98577.66
2023-04-01T03:08:20.045Z,98580.22
2023-04-01T03:10:47.500Z,98585.38
2023-04-01T03:13:14.956Z,98587.13
2023-04-01T03:15:42.234Z,98584.38
2023-04-01T03:18:09.875Z,98590.34
2023-04-01T03:20:38.688Z,98590.03
2023-04-01T03:23:05.975Z,98590.84
2023-04-01T03:25:33.523Z,98594.06
2023-04-01T03:28:03.235Z,98597.59
2023-04-01T03:30:34.905Z,98592.59
2023-04-01T03:33:02.847Z,98601.28
2023-04-01T03:35:32.311Z,98599.69
2023-04-01T03:38:00.379Z,98608.97
2023-04-01T03:40:28.582Z,98599.53
2023-04-01T03:42:57.333Z,98612.06
2023-04-01T03:45:25.373Z,98615.44
2023-04-01T03:47:52.703Z,98609.97
2023-04-01T03:50:21.208Z,98612.09
2023-04-01T03:52:48.502Z,98621.91
2023-04-01T03:55:16.579Z,98625.28
2023-04-01T03:57:44.120Z,98623.69
2023-04-01T04:00:19.044Z,98631.22
2023-04-01T04:02:51.781Z,98639.88
2023-04-01T04:05:26.710Z,98638.28
2023-04-01T04:07:54.560Z,98644.41
2023-04-01T04:10:24.064Z,98638.44
2023-04-01T04:12:52.180Z,98643.28
2023-04-01T04:15:21.336Z,98647.47
2023-04-01T04:17:48.975Z,98647.31
2023-04-01T04:20:16.607Z,98639.59
2023-04-01T04:22:44.084Z,98647.47
2023-04-01T04:25:11.703Z,98655.19
2023-04-01T04:27:40.444Z,98655.97
2023-04-01T04:30:10.557Z,98643.94
2023-04-01T04:32:38.451Z,98647.97
2023-04-01T04:35:07.788Z,98653.75
2023-04-01T04:37:35.587Z,98661.16
2023-04-01T04:40:03.027Z,98655.56
2023-04-01T04:42:31.962Z,98654.44
2023-04-01T04:45:05.638Z,98658.19
2023-04-01T04:47:33.156Z,98659.31
2023-04-01T04:50:00.586Z,98669.28
2023-04-01T04:52:28.392Z,98668.97
2023-04-01T04:54:56.130Z,98673.00
2023-04-01T04:57:23.709Z,98680.06
2023-04-01T04:59:55.561Z,98681.84
2023-04-01T05:02:45.041Z,98685.06
2023-04-01T05:05:12.605Z,98681.69
2023-04-01T05:07:40.827Z,98687.13
2023-04-01T05:10:09.001Z,98688.59
2023-04-01T05:12:40.005Z,98689.75
2023-04-01T05:15:10.077Z,98684.47
2023-04-01T05:17:38.942Z,98691.09
2023-04-01T05:20:07.463Z,98688.25
2023-04-01T05:22:35.231Z,98692.97
2023-04-01T05:25:02.731Z,98694.41
2023-04-01T05:27:30.684Z,98698.47
2023-04-01T05:29:58.236Z,98695.91
2023-04-01T05:32:48.839Z,98696.75
2023-04-01T05:35:16.517Z,98692.56
2023-04-01T05:37:43.966Z,98690.66
2023-04-01T05:40:11.943Z,98693.91
2023-04-01T05:42:39.733Z,98702.06
2023-04-01T05:45:07.535Z,98701.44
2023-04-01T05:47:53.712Z,98701.59
2023-04-01T05:50:22.050Z,98702.91
2023-04-01T05:52:49.821Z,98700.63
2023-04-01T05:55:18.155Z,98704.03
2023-04-01T05:57:50.455Z,98705.91
2023-04-01T06:00:18.414Z,98706.09
2023-04-01T06:02:47.475Z,98716.03
2023-04-01T06:05:18.059Z,98721.19
2023-04-01T06:07:45.730Z,98722.47
2023-04-01T06:10:14.274Z,98718.59
2023-04-01T06:12:49.226Z,98717.91
2023-04-01T06:15:24.575Z,98719.03
2023-04-01T06:18:10.503Z,98719.28
2023-04-01T06:20:49.891Z,98719.75
2023-04-01T06:23:26.146Z,98712.28
2023-04-01T06:26:29.523Z,98720.53
2023-04-01T06:28:59.525Z,98722.56
2023-04-01T06:31:33.498Z,98726.59
2023-04-01T06:34:10.092Z,98725.53
2023-04-01T06:36:45.247Z,98730.31
2023-04-01T06:39:17.981Z,98728.06
2023-04-01T06:42:04.360Z,98731.91
2023-04-01T06:44:58.294Z,98727.59
2023-04-01T06:47:47.238Z,98729.47
2023-04-01T06:50:51.675Z,98737.38
2023-04-01T06:54:00.214Z,98750.53
2023-04-01T06:57:32.471Z,98745.66
2023-04-01T07:00:05.844Z,98747.50
2023-04-01T07:02:45.313Z,98752.03
2023-04-01T07:05:13.155Z,98760.47
2023-04-01T07:07:41.583Z,98755.28
2023-04-01T07:10:18.127Z,98752.53
2023-04-01T07:13:07.756Z,98750.13
2023-04-01T07:16:05.683Z,98753.31
2023-04-01T07:18:44.051Z,98753.56
2023-04-01T07:21:19.660Z,98752.03
2023-04-01T07:23:47.398Z,98756.00
2023-04-01T07:26:40.939Z,98753.06
2023-04-01T07:29:15.684Z,98756.47
2023-04-01T07:32:03.076Z,98758.94
2023-04-01T07:34:40.427Z,98758.31
2023-04-01T07:37:18.516Z,98756.41
2023-04-01T07:40:21.692Z,98763.06
2023-04-01T07:43:01.487Z,98768.59
2023-04-01T07:45:29.192Z,98763.59
2023-04-01T07:48:06.348Z,98767.75
2023-04-01T07:50:37.030Z,98764.22
2023-04-01T07:53:26.648Z,98770.91
2023-04-01T07:56:02.537Z,98773.97
2023-04-01T07:58:35.742Z,98784.91
2023-04-01T08:01:25.667Z,98784.88
2023-04-01T08:03:59.184Z,98783.28
2023-04-01T08:06:29.819Z,98774.78
2023-04-01T08:08:57.330Z,98788.84
2023-04-01T08:12:11.187Z,98784.69
2023-04-01T08:15:07.796Z,98781.06
2023-04-01T08:17:48.396Z,98781.69
2023-04-01T08:20:34.971Z,98780.06
2023-04-01T08:23:09.969Z,98791.88
2023-04-01T08:25:52.383Z,98784.88
2023-04-01T08:28:25.610Z,98782.28
2023-04-01T08:30:57.492Z,98785.88
2023-04-01T08:33:25.260Z,98783.28
2023-04-01T08:36:16.085Z,98781.78
2023-04-01T08:38:55.630Z,98795.72
2023-04-01T08:41:23.135Z,98797.22
2023-04-01T08:44:29.248Z,98797.72
2023-04-01T08:47:06.966Z,98790.03
2023-04-01T08:49:49.718Z,98791.97
2023-04-01T08:52:34.160Z,98803.56
2023-04-01T08:55:15.997Z,98799.69
2023-04-01T08:57:59.055Z,98811.03
2023-04-01T09:01:02.678Z,98805.59
2023-04-01T09:03:51.801Z,98808.44
2023-04-01T09:06:49.691Z,98806.75
2023-04-01T09:09:33.406Z,98811.19
2023-04-01T09:12:28.337Z,98817.28
2023-04-01T09:15:14.732Z,98814.97
2023-04-01T09:17:52.504Z,98811.47
2023-04-01T09:20:20.131Z,98814.88
2023-04-01T09:22:54.876Z,98812.22
2023-04-01T09:25:22.246Z,98818.88
2023-04-01T09:28:08.336Z,98814.66
2023-04-01T09:30:36.106Z,98823.25
2023-04-01T09:33:22.298Z,98820.69
2023-04-01T09:35:49.845Z,98824.44
2023-04-01T09:38:23.169Z,98822.94
2023-04-01T09:41:10.011Z,98830.81
2023-04-01T09:44:02.497Z,98831.44
2023-04-01T09:46:39.031Z,98832.41
2023-04-01T09:49:09.878Z,98840.97
2023-04-01T09:51:57.900Z,98836.50
2023-04-01T09:54:25.938Z,98843.47
2023-04-01T09:57:14.022Z,98841.88
2023-04-01T09:59:55.565Z,98847.06
2023-04-01T10:03:00.915Z,98859.06
2023-04-01T10:05:36.528Z,98857.09
2023-04-01T10:08:06.593Z,98856.81
2023-04-01T10:10:41.251Z,98854.91
2023-04-01T10:13:17.932Z,98867.88
2023-04-01T10:16:01.442Z,98860.72
2023-04-01T10:18:47.870Z,98871.81
2023-04-01T10:21:34.640Z,98872.03
2023-04-01T10:24:20.947Z,98873.63
2023-04-01T10:26:50.332Z,98869.69
2023-04-01T10:29:52.608Z,98870.31
2023-04-01T10:32:36.719Z,98875.13
2023-04-01T10:35:22.327Z,98878.34
2023-04-01T10:38:08.779Z,98882.13
2023-04-01T10:40:42.844Z,98883.19
2023-04-01T10:43:47.092Z,98880.69
2023-04-01T10:46:26.377Z,98882.47
2023-04-01T10:49:03.834Z,98887.50
2023-04-01T10:51:51.225Z,98880.63
2023-04-01T10:54:32.479Z,98887.13
2023-04-01T10:57:35.333Z,98886.13
2023-04-01T11:00:29.524Z,98890.25
2023-04-01T11:03:27.581Z,98885.63
2023-04-01T11:06:24.382Z,98891.50
2023-04-01T11:09:21.717Z,98893.25
2023-04-01T11:11:49.177Z,98888.25
2023-04-01T11:14:26.593Z,98889.22
2023-04-01T11:16:57.110Z,98879.81
2023-04-01T11:19:45.673Z,98888.50
2023-04-01T11:22:16.189Z,98884.56
2023-04-01T11:24:59.273Z,98886.94
2023-04-01T11:28:07.452Z,98887.09
2023-04-01T11:30:47.453Z,98881.22
2023-04-01T11:33:27.325Z,98880.13
2023-04-01T11:36:14.782Z,98886.91
2023-04-01T11:38:45.693Z,98887.66
2023-04-01T11:41:40.565Z,98889.13
2023-04-01T11:44:28.855Z,98896.63
2023-04-01T11:47:20.702Z,98896.66
2023-04-01T11:49:57.333Z,98895.75
2023-04-01T11:52:56.065Z,98888.09
2023-04-01T11:55:33.326Z,98891.50
2023-04-01T11:58:19.740Z,98892.88
2023-04-01T12:00:53.649Z,98896.91
2023-04-01T12:03:38.898Z,98890.88
2023-04-01T12:06:21.984Z,98898.31
2023-04-01T12:09:02.270Z,98902.72
2023-04-01T12:11:36.443Z,98901.28
2023-04-01T12:14:17.025Z,98902.84
2023-04-01T12:16:47.501Z,98906.09
2023-04-01T12:19:33.672Z,98904.28
2023-04-01T12:22:01.066Z,98899.81
2023-04-01T12:24:42.910Z,98897.22
2023-04-01T12:27:11.754Z,98899.16
2023-04-01T12:29:50.494Z,98901.19
2023-04-01T12:32:27.260Z,98893.94
2023-04-01T12:34:59.486Z,98898.56
2023-04-01T12:37:46.001Z,98906.31
2023-04-01T12:40:19.552Z,98902.91
2023-04-01T12:42:52.698Z,98902.13
2023-04-01T12:45:34.152Z,98899.94
2023-04-01T12:48:04.883Z,98903.56
2023-04-01T12:50:41.881Z,98903.97
2023-04-01T12:53:09.074Z,98912.44
2023-04-01T12:55:40.870Z,98923.69
2023-04-01T12:58:27.183Z,98922.13
2023-04-01T13:01:00.904Z,98930.34
2023-04-01T13:03:28.298Z,98924.94
2023-04-01T13:06:15.932Z,98933.00
2023-04-01T13:08:56.857Z,98931.81
2023-04-01T13:11:27.211Z,98931.41
2023-04-01T13:14:01.178Z,98933.63
2023-04-01T13:16:30.380Z,98930.41
2023-04-01T13:19:16.547Z,98930.41
2023-04-01T13:21:47.099Z,98945.75
2023-04-01T13:24:14.380Z,98944.91
2023-04-01T13:26:41.712Z,98945.06
2023-04-01T13:29:09.054Z,98944.03
2023-04-01T13:31:36.314Z,98944.38
2023-04-01T13:34:19.548Z,98955.09
2023-04-01T13:36:56.681Z,98954.41
2023-04-01T13:39:36.399Z,98959.53
2023-04-01T13:42:03.582Z,98970.88
2023-04-01T13:44:38.301Z,98972.78
2023-04-01T13:47:05.732Z,98975.88
2023-04-01T13:49:49.925Z,98977.00
2023-04-01T13:52:17.487Z,98978.28
2023-04-01T13:54:47.735Z,98978.28
2023-04-01T13:57:20.988Z,98974.59
2023-04-01T13:59:57.781Z,98983.25
2023-04-01T14:02:31.276Z,98982.06
2023-04-01T14:05:17.284Z,98987.19
2023-04-01T14:07:50.568Z,98990.16
2023-04-01T14:10:42.847Z,98989.19
2023-04-01T14:13:35.161Z,98987.31
2023-04-01T14:16:12.986Z,98986.44
2023-04-01T14:19:03.665Z,98996.97
2023-04-01T14:21:33.932Z,98997.88
2023-04-01T14:24:01.464Z,99004.97
2023-04-01T14:27:00.712Z,99001.75
2023-04-01T14:29:37.757Z,99003.53
2023-04-01T14:32:29.292Z,99003.09
2023-04-01T14:34:56.828Z,99001.78
2023-04-01T14:37:44.631Z,98998.91
2023-04-01T14:40:15.061Z,99016.59
2023-04-01T14:43:01.126Z,99007.75
2023-04-01T14:45:40.783Z,99012.56
2023-04-01T14:48:26.709Z,99011.66
2023-04-01T14:50:56.567Z,99027.56
2023-04-01T14:53:23.913Z,99024.63
2023-04-01T14:55:52.884Z,99028.81
2023-04-01T14:58:22.888Z,99031.59
2023-04-01T15:00:50.877Z,99034.38
2023-04-01T15:03:27.944Z,99028.38
2023-04-01T15:05:57.689Z,99039.72
2023-04-01T15:08:31.501Z,99040.25
2023-04-01T15:11:17.965Z,99048.53
2023-04-01T15:13:57.425Z,99052.13
2023-04-01T15:16:29.044Z,99046.50
2023-04-01T15:19:14.040Z,99050.78
2023-04-01T15:21:56.822Z,99058.59
2023-04-01T15:24:43.204Z,99058.16
2023-04-01T15:27:13.918Z,99064.03
2023-04-01T15:29:42.119Z,99058.72
2023-04-01T15:32:18.225Z,99069.94
2023-04-01T15:34:49.947Z,99068.22
2023-04-01T15:37:17.154Z,99066.94
2023-04-01T15:40:07.573Z,99072.31
2023-04-01T15:42:51.516Z,99077.66
2023-04-01T15:45:34.862Z,99079.09
2023-04-01T15:48:07.611Z,99084.91
2023-04-01T15:53:25.750Z,99090.25
2023-04-01T15:55:53.127Z,99094.66
2023-04-01T15:58:20.403Z,99095.28
2023-04-01T16:00:54.706Z,99104.66
2023-04-01T16:03:37.164Z,99103.06
2023-04-01T16:06:16.088Z,99102.41
2023-04-01T16:08:54.547Z,99099.69
2023-04-01T16:11:28.910Z,99111.69
2023-04-01T16:14:03.906Z,99111.03
2023-04-01T16:16:31.654Z,99111.19
2023-04-01T16:19:08.194Z,99118.00
2023-04-01T16:22:01.652Z,99130.66
2023-04-01T16:24:40.756Z,99133.28
2023-04-01T16:27:34.413Z,99130.38
2023-04-01T16:30:05.005Z,99141.06
2023-04-01T16:32:38.582Z,99134.78
2023-04-01T16:35:18.781Z,99135.78
2023-04-01T16:37:55.215Z,99137.53
2023-04-01T16:40:48.277Z,99139.50
2023-04-01T16:43:26.332Z,99143.22
2023-04-01T16:46:16.898Z,99150.50
2023-04-01T16:49:01.269Z,99144.38
2023-04-01T16:51:58.120Z,99150.50
2023-04-01T16:54:30.378Z,99154.72
2023-04-01T16:57:10.085Z,99149.69
2023-04-01T16:59:39.317Z,99151.63
2023-04-01T17:02:12.868Z,99159.56
2023-04-01T17:04:40.167Z,99156.97
2023-04-01T17:07:16.376Z,99156.81
2023-04-01T17:09:43.635Z,99164.56
2023-04-01T17:12:11.095Z,99169.59
2023-04-01T17:14:44.513Z,99168.44
2023-04-01T17:17:18.369Z,99176.22
2023-04-01T17:20:00.877Z,99164.25
2023-04-01T17:22:46.773Z,99174.63
2023-04-01T17:25:19.159Z,99177.03
2023-04-01T17:27:53.243Z,99171.69
2023-04-01T17:30:30.187Z,99166.31
2023-04-01T17:33:10.280Z,99166.69
2023-04-01T17:35:44.121Z,99176.22
2023-04-01T17:38:21.146Z,99175.44
2023-04-01T17:40:58.775Z,99172.97
2023-04-01T17:43:33.781Z,99173.78
2023-04-01T17:46:24.411Z,99176.22
2023-04-01T17:48:59.677Z,99178.31
2023-04-01T17:51:34.871Z,99186.72
2023-04-01T17:54:02.245Z,99183.16
2023-04-01T17:56:30.035Z,99188.66
2023-04-01T17:59:00.500Z,99183.97
2023-04-01T18:01:35.194Z,99185.78
2023-04-01T18:04:16.712Z,99190.31
2023-04-01T18:06:47.121Z,99194.03
2023-04-01T18:09:27.068Z,99190.97
2023-04-01T18:12:13.146Z,99190.16
2023-04-01T18:14:43.726Z,99197.09
2023-04-01T18:17:19.888Z,99194.50
2023-04-01T18:19:50.227Z,99197.44
2023-04-01T18:22:30.484Z,99202.78
2023-04-01T18:25:07.295Z,99203.75
2023-04-01T18:27:41.667Z,99215.72
2023-04-01T18:30:15.087Z,99212.81
2023-04-01T18:32:51.361Z,99224.78
2023-04-01T18:35:22.537Z,99226.06
2023-04-01T18:37:49.964Z,99224.28
2023-04-01T18:40:25.483Z,99232.84
2023-04-01T18:43:11.449Z,99229.44
2023-04-01T18:45:47.520Z,99232.84
2023-04-01T18:48:14.953Z,99232.03
2023-04-01T18:50:52.642Z,99228.50
2023-04-01T18:53:23.532Z,99233.66
2023-04-01T18:55:54.039Z,99244.38
2023-04-01T18:58:36.703Z,99240.63
2023-04-01T19:01:04.143Z,99244.50
2023-04-01T19:03:38.212Z,99240.78
2023-04-01T19:06:31.384Z,99239.63
2023-04-01T19:09:11.318Z,99246.13
2023-04-01T19:11:51.361Z,99248.88
2023-04-01T19:14:37.532Z,99250.19
2023-04-01T19:17:16.985Z,99244.03
2023-04-01T19:19:47.692Z,99239.50
2023-04-01T19:22:16.049Z,99254.72
2023-04-01T19:24:50.448Z,99253.38
2023-04-01T19:27:33.204Z,99254.19
2023-04-01T19:30:05.186Z,99253.56
2023-04-01T19:32:47.528Z,99257.31
2023-04-01T19:35:24.275Z,99258.91
2023-04-01T19:37:56.114Z,99258.56
2023-04-01T19:40:36.446Z,99259.53
2023-04-01T19:43:16.038Z,99267.97
2023-04-01T19:45:56.589Z,99272.47
2023-04-01T19:48:40.280Z,99270.84
2023-04-01T19:51:17.979Z,99264.72
2023-04-01T19:53:45.478Z,99273.78
2023-04-01T19:56:20.146Z,99267.63
2023-04-01T19:59:06.656Z,99270.84
2023-04-01T20:01:44.135Z,99281.19
2023-04-01T20:04:17.142Z,99277.00
2023-04-01T20:06:50.481Z,99272.00
2023-04-01T20:09:17.950Z,99274.72
2023-04-01T20:11:48.744Z,99279.13
2023-04-01T20:14:29.516Z,99273.13
2023-04-01T20:17:03.064Z,99280.38
2023-04-01T20:19:51.057Z,99278.63
2023-04-01T20:22:29.517Z,99278.13
2023-04-01T20:25:01.068Z,99276.03
2023-04-01T20:27:33.531Z,99280.06
2023-04-01T20:30:11.101Z,99277.16
2023-04-01T20:32:41.651Z,99281.19
2023-04-01T20:35:08.989Z,99281.03
2023-04-01T20:37:56.019Z,99285.22
2023-04-01T20:40:34.984Z,99284.25
2023-04-01T20:43:12.162Z,99280.53
2023-04-01T20:45:48.938Z,99285.38
2023-04-01T20:48:32.220Z,99281.00
2023-04-01T20:51:06.711Z,99286.03
2023-04-01T20:53:43.716Z,99293.78
2023-04-01T20:56:11.880Z,99287.66
2023-04-01T20:59:03.715Z,99278.75
2023-04-01T21:01:51.707Z,99282.16
2023-04-01T21:04:32.197Z,99278.56
2023-04-01T21:07:17.726Z,99296.38
2023-04-01T21:09:53.528Z,99290.38
2023-04-01T21:12:29.132Z,99286.19
2023-04-01T21:15:00.064Z,99292.19
2023-04-01T21:17:40.235Z,99295.25
2023-04-01T21:20:17.519Z,99304.31
2023-04-01T21:22:45.304Z,99302.56
2023-04-01T21:25:18.988Z,99301.56
2023-04-01T21:28:01.336Z,99300.63
2023-04-01T21:30:41.746Z,99301.25
2023-04-01T21:33:12.241Z,99307.25
2023-04-01T21:35:51.968Z,99307.38
2023-04-01T21:38:19.546Z,99304.66
2023-04-01T21:40:57.237Z,99306.09
2023-04-01T21:43:38.461Z,99319.03
2023-04-01T21:46:06.146Z,99323.91
2023-04-01T21:48:46.741Z,99321.97
2023-04-01T21:51:27.311Z,99326.31
2023-04-01T21:53:58.020Z,99329.56
2023-04-01T21:56:41.063Z,99331.00
2023-04-01T21:59:28.188Z,99329.03
2023-04-01T22:02:14.359Z,99319.34
2023-04-01T22:05:01.090Z,99331.00
2023-04-01T22:07:35.696Z,99325.03
2023-04-01T22:10:06.269Z,99326.63
2023-04-01T22:12:42.202Z,99322.44
2023-04-01T22:15:18.945Z,99321.78
2023-04-01T22:17:50.570Z,99318.38
2023-04-01T22:20:27.476Z,99317.41
2023-04-01T22:23:14.156Z,99322.56
2023-04-01T22:25:45.831Z,99314.03
2023-04-01T22:28:17.173Z,99321.44
2023-04-01T22:30:52.075Z,99315.81
2023-04-01T22:33:37.027Z,99333.28
2023-04-01T22:36:05.062Z,99333.63
2023-04-01T22:38:42.450Z,99327.78
2023-04-01T22:41:25.293Z,99334.72
2023-04-01T22:43:53.369Z,99335.38
2023-04-01T22:46:39.831Z,99337.16
2023-04-01T22:49:17.700Z,99339.44
2023-04-01T22:51:51.189Z,99334.91
2023-04-01T22:54:18.922Z,99335.06
2023-04-01T22:56:49.554Z,99338.44
2023-04-01T22:59:43.590Z,99337.66
2023-04-01T23:02:27.589Z,99336.84
2023-04-01T23:04:57.693Z,99333.91
2023-04-01T23:07:47.836Z,99335.72
2023-04-01T23:10:31.149Z,99337.50
2023-04-01T23:13:03.461Z,99334.09
2023-04-01T23:15:31.779Z,99338.47
2023-04-01T23:18:18.710Z,99339.59
2023-04-01T23:20:46.684Z,99340.06
2023-04-01T23:23:22.565Z,99342.00
2023-04-01T23:26:06.260Z,99338.13
2023-04-01T23:28:41.573Z,99333.94
2023-04-01T23:31:28.139Z,99342.34
2023-04-01T23:34:01.184Z,99343.00
2023-04-01T23:36:29.548Z,99344.59
2023-04-01T23:38:57.427Z,99352.06
2023-04-01T23:41:27.597Z,99352.84
2023-04-01T23:44:03.236Z,99341.72
2023-04-01T23:46:33.381Z,99341.06
2023-04-01T23:49:02.075Z,99347.19
2023-04-01T23:51:37.896Z,99343.66
2023-04-01T23:54:12.304Z,99344.28
2023-04-01T23:56:42.515Z,99344.94
2023-04-01T23:59:24.452Z,99347.19
